createdAt,value
2022-11-23T00:00:23.108Z,2.47
2022-11-23T00:03:20.008Z,2.90
2022-11-23T00:06:18.111Z,2.97
2022-11-23T00:09:14.967Z,3.47
2022-11-23T00:12:11.872Z,3.20
2022-11-23T00:15:09.963Z,3.53
2022-11-23T00:18:06.846Z,3.47
2022-11-23T00:21:17.123Z,3.22
2022-11-23T00:24:14.155Z,4.28
2022-11-23T00:27:11.025Z,3.28
2022-11-23T00:30:08.948Z,3.00
2022-11-23T00:33:05.881Z,3.20
2022-11-23T00:36:08.955Z,2.78
2022-11-23T00:39:05.817Z,3.85
2022-11-23T00:42:02.755Z,3.58
2022-11-23T00:44:59.686Z,3.33
2022-11-23T00:47:56.573Z,2.85
2022-11-23T00:50:53.543Z,2.95
2022-11-23T00:53:51.790Z,3.20
2022-11-23T00:56:48.679Z,3.00
2022-11-23T00:59:45.786Z,2.85
2022-11-23T01:02:42.675Z,3.15
2022-11-23T01:05:39.808Z,2.83
2022-11-23T01:08:37.750Z,3.83
2022-11-23T01:11:35.435Z,3.35
2022-11-23T01:14:32.356Z,3.45
2022-11-23T01:17:29.285Z,2.88
2022-11-23T01:20:26.170Z,3.10
2022-11-23T01:23:23.293Z,2.95
2022-11-23T01:26:20.875Z,3.03
2022-11-23T01:29:17.748Z,3.20
2022-11-23T01:32:14.645Z,2.47
2022-11-23T01:35:11.539Z,2.00
2022-11-23T01:38:08.782Z,2.58
2022-11-23T01:41:11.968Z,2.50
2022-11-23T01:44:31.468Z,2.38
2022-11-23T01:47:28.421Z,2.17
2022-11-23T01:50:26.253Z,3.85
2022-11-23T01:53:23.470Z,2.75
2022-11-23T01:56:26.978Z,2.58
2022-11-23T01:59:25.483Z,2.58
2022-11-23T02:02:22.654Z,2.70
2022-11-23T02:05:24.156Z,2.63
2022-11-23T02:08:21.969Z,2.67
2022-11-23T02:11:18.889Z,2.97
2022-11-23T02:14:21.926Z,2.30
2022-11-23T02:17:22.050Z,3.10
2022-11-23T02:20:19.549Z,3.05
2022-11-23T02:23:46.580Z,3.75
2022-11-23T02:26:44.140Z,2.92
2022-11-23T02:29:41.766Z,3.63
2022-11-23T02:32:38.926Z,3.65
2022-11-23T02:35:36.071Z,3.50
2022-11-23T02:38:34.097Z,4.13
2022-11-23T02:41:50.476Z,3.78
2022-11-23T02:45:20.184Z,3.90
2022-11-23T02:48:18.371Z,3.72
2022-11-23T02:51:15.272Z,3.28
2022-11-23T02:54:12.329Z,4.10
2022-11-23T02:57:10.031Z,2.60
2022-11-23T03:00:08.118Z,3.70
2022-11-23T03:03:05.447Z,4.05
2022-11-23T03:06:02.538Z,3.13
2022-11-23T03:08:59.645Z,3.35
2022-11-23T03:11:56.624Z,3.55
2022-11-23T03:14:53.568Z,3.00
2022-11-23T03:17:50.597Z,3.50
2022-11-23T03:20:47.483Z,3.55
2022-11-23T03:23:44.740Z,3.05
2022-11-23T03:26:41.641Z,3.80
2022-11-23T03:29:38.510Z,3.05
2022-11-23T03:32:36.391Z,3.40
2022-11-23T03:35:33.250Z,3.95
2022-11-23T03:38:30.709Z,3.40
2022-11-23T03:41:27.818Z,3.10
2022-11-23T03:44:24.874Z,2.67
2022-11-23T03:47:21.829Z,3.38
2022-11-23T03:50:18.851Z,3.60
2022-11-23T03:53:15.783Z,3.10
2022-11-23T03:56:13.549Z,2.83
2022-11-23T03:59:10.448Z,3.17
2022-11-23T04:02:08.132Z,2.60
2022-11-23T04:05:05.858Z,2.88
2022-11-23T04:08:02.818Z,3.15
2022-11-23T04:11:00.203Z,2.85
2022-11-23T04:13:57.086Z,3.03
2022-11-23T04:16:54.031Z,2.72
2022-11-23T04:19:50.961Z,4.53
2022-11-23T04:22:47.890Z,3.03
2022-11-23T04:25:46.185Z,2.92
2022-11-23T04:28:43.052Z,2.47
2022-11-23T04:31:39.998Z,2.35
2022-11-23T04:34:37.188Z,3.20
2022-11-23T04:37:34.090Z,3.03
2022-11-23T04:40:31.788Z,2.70
2022-11-23T04:43:28.680Z,3.00
2022-11-23T04:46:25.984Z,3.10
2022-11-23T04:49:22.821Z,2.83
2022-11-23T04:52:19.693Z,2.92
2022-11-23T04:55:16.669Z,2.70
2022-11-23T04:58:13.621Z,2.88
2022-11-23T05:01:10.633Z,3.45
2022-11-23T05:04:07.801Z,2.97
2022-11-23T05:07:04.803Z,3.13
2022-11-23T05:10:02.028Z,3.05
2022-11-23T05:12:58.994Z,2.83
2022-11-23T05:15:55.829Z,2.90
2022-11-23T05:18:52.660Z,2.85
2022-11-23T05:21:49.517Z,3.17
2022-11-23T05:24:46.368Z,3.05
2022-11-23T05:27:43.251Z,3.08
2022-11-23T05:30:40.093Z,3.20
2022-11-23T05:33:37.170Z,5.30
2022-11-23T05:36:35.153Z,3.88
2022-11-23T05:39:34.723Z,4.75
2022-11-23T05:42:32.761Z,3.20
2022-11-23T05:45:29.663Z,3.38
2022-11-23T05:48:27.053Z,3.80
2022-11-23T05:51:23.959Z,3.65
2022-11-23T05:54:20.996Z,4.53
2022-11-23T05:57:18.064Z,3.63
2022-11-23T06:00:15.717Z,3.30
2022-11-23T06:03:12.669Z,3.22
2022-11-23T06:06:09.661Z,3.40
2022-11-23T06:09:06.510Z,3.80
2022-11-23T06:12:03.932Z,4.28
2022-11-23T06:15:00.816Z,2.75
2022-11-23T06:18:02.218Z,2.92
2022-11-23T06:21:02.145Z,4.60
2022-11-23T06:23:59.000Z,11.20
2022-11-23T06:26:55.842Z,8.95
2022-11-23T06:29:52.702Z,22.55
2022-11-23T06:32:49.816Z,11.05
2022-11-23T06:35:54.834Z,13.52
2022-11-23T06:38:51.677Z,3.00
2022-11-23T06:41:48.637Z,5.88
2022-11-23T06:44:45.470Z,4.40
2022-11-23T06:47:42.358Z,3.03
2022-11-23T06:50:39.232Z,4.22
2022-11-23T06:53:36.576Z,7.22
2022-11-23T06:56:33.430Z,4.05
2022-11-23T06:59:30.484Z,12.27
2022-11-23T07:02:27.657Z,5.65
2022-11-23T07:05:24.972Z,3.55
2022-11-23T07:08:22.302Z,3.55
2022-11-23T07:11:19.162Z,3.40
2022-11-23T07:14:16.198Z,3.83
2022-11-23T07:17:17.320Z,2.92
2022-11-23T07:20:15.056Z,3.22
2022-11-23T07:23:12.668Z,2.78
2022-11-23T07:26:09.803Z,4.55
2022-11-23T07:29:06.763Z,17.58
2022-11-23T07:32:03.796Z,5.78
2022-11-23T07:35:01.140Z,8.10
2022-11-23T07:37:58.112Z,3.88
2022-11-23T07:40:55.071Z,4.63
2022-11-23T07:43:52.104Z,3.00
2022-11-23T07:46:49.012Z,3.63
2022-11-23T07:49:45.863Z,3.05
2022-11-23T07:52:42.756Z,4.10
2022-11-23T07:55:39.608Z,9.05
2022-11-23T07:58:36.507Z,7.10
2022-11-23T08:01:33.483Z,3.90
2022-11-23T08:04:30.812Z,3.75
2022-11-23T08:07:27.893Z,3.45
2022-11-23T08:10:25.187Z,7.25
2022-11-23T08:13:22.849Z,5.95
2022-11-23T08:16:20.068Z,5.53
2022-11-23T08:19:17.488Z,4.38
2022-11-23T08:22:15.849Z,4.13
2022-11-23T08:25:13.451Z,2.38
2022-11-23T08:28:10.985Z,2.78
2022-11-23T08:31:11.352Z,2.85
2022-11-23T08:34:08.236Z,2.42
2022-11-23T08:37:05.100Z,2.70
2022-11-23T08:40:02.146Z,2.30
2022-11-23T08:42:59.195Z,2.65
2022-11-23T08:46:04.704Z,2.67
2022-11-23T08:49:04.948Z,2.55
2022-11-23T08:52:01.920Z,2.53
2022-11-23T08:54:58.778Z,4.75
2022-11-23T08:57:57.706Z,3.78
2022-11-23T09:00:54.616Z,3.42
2022-11-23T09:03:51.565Z,2.70
2022-11-23T09:06:48.399Z,2.70
2022-11-23T09:09:45.314Z,4.20
2022-11-23T09:12:42.326Z,3.70
2022-11-23T09:15:39.640Z,2.20
2022-11-23T09:18:36.785Z,3.35
2022-11-23T09:21:35.753Z,2.70
2022-11-23T09:24:32.889Z,2.58
2022-11-23T09:27:30.077Z,3.10
2022-11-23T09:30:28.026Z,3.22
2022-11-23T09:33:25.785Z,2.65
2022-11-23T09:36:26.161Z,2.92
2022-11-23T09:39:23.027Z,4.28
2022-11-23T09:42:40.309Z,3.20
2022-11-23T09:45:55.019Z,2.28
2022-11-23T09:49:11.917Z,2.15
2022-11-23T09:52:19.419Z,11.48
2022-11-23T09:55:22.835Z,5.07
2022-11-23T09:58:22.736Z,2.55
2022-11-23T10:01:20.244Z,2.87
2022-11-23T10:04:20.234Z,2.60
2022-11-23T10:07:28.987Z,2.83
2022-11-23T10:10:53.912Z,2.58
2022-11-23T10:14:13.985Z,3.45
2022-11-23T10:17:35.709Z,2.40
2022-11-23T10:21:02.366Z,3.00
2022-11-23T10:24:08.483Z,8.50
2022-11-23T10:27:16.291Z,2.72
2022-11-23T10:30:15.844Z,2.67
2022-11-23T10:33:45.068Z,4.13
2022-11-23T10:36:42.978Z,2.92
2022-11-23T10:39:40.494Z,2.50
2022-11-23T10:42:47.831Z,2.88
2022-11-23T10:45:44.664Z,2.33
2022-11-23T10:48:44.569Z,2.50
2022-11-23T10:51:53.221Z,2.73
2022-11-23T10:54:55.433Z,3.70
2022-11-23T10:57:52.617Z,3.55
2022-11-23T11:01:00.841Z,5.35
2022-11-23T11:04:04.686Z,2.28
2022-11-23T11:07:23.973Z,3.67
2022-11-23T11:11:02.863Z,5.57
2022-11-23T11:14:19.959Z,4.80
2022-11-23T11:17:28.405Z,7.35
2022-11-23T11:20:34.897Z,6.75
2022-11-23T11:23:33.557Z,10.02
2022-11-23T11:26:33.999Z,4.68
2022-11-23T11:29:39.977Z,4.60
2022-11-23T11:32:56.261Z,3.22
2022-11-23T11:35:55.860Z,2.00
2022-11-23T11:39:17.277Z,1.80
2022-11-23T11:42:27.142Z,2.80
2022-11-23T11:45:36.646Z,2.38
2022-11-23T11:48:45.629Z,3.50
2022-11-23T11:51:48.776Z,4.18
2022-11-23T11:55:19.700Z,5.10
2022-11-23T12:01:35.641Z,2.38
2022-11-23T12:04:56.327Z,4.88
2022-11-23T12:08:06.648Z,2.00
2022-11-23T12:11:05.741Z,3.28
2022-11-23T12:14:05.727Z,1.98
2022-11-23T12:17:32.300Z,3.80
2022-11-23T12:20:33.052Z,2.67
2022-11-23T12:24:28.922Z,2.25
2022-11-23T12:27:39.274Z,2.72
2022-11-23T12:31:08.758Z,2.90
2022-11-23T12:34:11.356Z,2.15
2022-11-23T12:37:44.330Z,3.55
2022-11-23T12:41:07.931Z,4.78
2022-11-23T12:44:44.912Z,2.65
2022-11-23T12:48:09.036Z,7.88
2022-11-23T12:51:35.243Z,5.07
2022-11-23T12:55:19.571Z,13.05
2022-11-23T12:58:32.773Z,9.80
2022-11-23T13:01:39.786Z,14.10
2022-11-23T13:05:03.115Z,8.88
2022-11-23T13:08:32.514Z,8.35
2022-11-23T13:11:58.034Z,6.57
2022-11-23T13:15:47.450Z,17.58
2022-11-23T13:19:22.726Z,17.08
2022-11-23T13:22:22.504Z,11.77
2022-11-23T13:25:29.765Z,10.40
2022-11-23T13:28:31.389Z,2.20
2022-11-23T13:31:32.165Z,3.63
2022-11-23T13:34:46.824Z,2.55
2022-11-23T13:38:23.715Z,3.63
2022-11-23T13:41:35.361Z,3.65
2022-11-23T13:44:33.477Z,2.40
2022-11-23T13:47:30.761Z,1.88
2022-11-23T13:50:27.665Z,2.15
2022-11-23T13:53:33.265Z,2.70
2022-11-23T13:56:41.064Z,2.75
2022-11-23T13:59:37.968Z,2.97
2022-11-23T14:02:34.883Z,2.22
2022-11-23T14:05:59.402Z,2.22
2022-11-23T14:09:33.157Z,1.13
2022-11-23T14:13:15.926Z,2.50
2022-11-23T14:16:18.454Z,1.63
2022-11-23T14:20:02.143Z,1.52
2022-11-23T14:23:56.716Z,1.23
2022-11-23T14:27:54.260Z,1.40
2022-11-23T14:31:17.833Z,1.38
2022-11-23T14:34:29.294Z,2.70
2022-11-23T14:38:12.831Z,1.40
2022-11-23T14:41:31.050Z,0.95
2022-11-23T14:44:34.271Z,0.90
2022-11-23T14:47:34.265Z,1.00
2022-11-23T14:50:31.512Z,1.35
2022-11-23T14:53:54.155Z,1.50
2022-11-23T14:57:05.329Z,1.70
2022-11-23T15:00:07.083Z,1.25
2022-11-23T15:06:46.155Z,11.90
2022-11-23T15:10:05.444Z,1.95
2022-11-23T15:13:02.368Z,3.40
2022-11-23T15:16:03.593Z,5.30
2022-11-23T15:19:00.456Z,6.40
2022-11-23T15:21:58.290Z,10.93
2022-11-23T15:25:06.301Z,16.48
2022-11-23T15:28:03.178Z,29.73
2022-11-23T15:31:00.197Z,18.65
2022-11-23T15:34:03.510Z,32.08
2022-11-23T15:37:02.374Z,16.95
2022-11-23T15:40:00.114Z,27.30
2022-11-23T15:42:57.384Z,12.20
2022-11-23T15:45:54.423Z,14.55
2022-11-23T15:48:56.985Z,13.88
2022-11-23T15:52:00.958Z,76.95
2022-11-23T15:55:10.205Z,34.50
2022-11-23T15:58:09.437Z,131.40
2022-11-23T16:01:13.325Z,202.77
2022-11-23T16:04:40.148Z,48.13
2022-11-23T16:07:57.559Z,21.95
2022-11-23T16:10:55.791Z,32.47
2022-11-23T16:13:52.750Z,25.90
2022-11-23T16:17:14.615Z,31.48
2022-11-23T16:20:16.553Z,23.58
2022-11-23T16:23:21.593Z,10.05
2022-11-23T16:26:18.833Z,12.90
2022-11-23T16:29:26.888Z,94.15
2022-11-23T16:32:31.072Z,102.45
2022-11-23T16:35:27.980Z,20.02
2022-11-23T16:38:25.411Z,41.95
2022-11-23T16:41:22.242Z,95.28
2022-11-23T16:44:19.780Z,83.30
2022-11-23T16:47:19.043Z,60.40
2022-11-23T16:50:16.017Z,66.50
2022-11-23T16:53:17.947Z,35.25
2022-11-23T16:56:26.809Z,25.58
2022-11-23T16:59:23.831Z,26.50
2022-11-23T17:02:20.958Z,46.13
2022-11-23T17:05:20.828Z,20.98
2022-11-23T17:08:23.309Z,34.03
2022-11-23T17:11:24.934Z,29.42
2022-11-23T17:14:28.062Z,36.42
2022-11-23T17:17:26.790Z,23.42
2022-11-23T17:20:24.662Z,21.25
2022-11-23T17:23:22.295Z,10.88
2022-11-23T17:26:37.028Z,12.55
2022-11-23T17:29:37.769Z,14.15
2022-11-23T17:32:37.328Z,16.75
2022-11-23T17:35:38.145Z,18.38
2022-11-23T17:38:36.624Z,8.07
2022-11-23T17:41:33.519Z,9.45
2022-11-23T17:44:30.420Z,11.98
2022-11-23T17:47:29.988Z,21.05
2022-11-23T17:50:28.680Z,50.50
2022-11-23T17:53:25.765Z,11.70
2022-11-23T17:56:25.665Z,11.90
2022-11-23T17:59:22.551Z,10.27
2022-11-23T18:02:20.019Z,9.20
2022-11-23T18:05:21.501Z,17.63
2022-11-23T18:08:18.829Z,18.17
2022-11-23T18:11:15.857Z,8.70
2022-11-23T18:14:12.721Z,12.80
2022-11-23T18:17:09.661Z,9.05
2022-11-23T18:20:08.316Z,8.75
2022-11-23T18:23:05.462Z,11.63
2022-11-23T18:26:21.710Z,13.13
2022-11-23T18:29:18.594Z,5.65
2022-11-23T18:32:15.838Z,6.57
2022-11-23T18:35:12.746Z,7.35
2022-11-23T18:38:09.647Z,11.10
2022-11-23T18:41:07.150Z,32.95
2022-11-23T18:44:04.220Z,85.18
2022-11-23T18:47:01.302Z,39.75
2022-11-23T18:50:02.052Z,50.45
2022-11-23T18:53:03.725Z,11.63
2022-11-23T18:56:05.014Z,7.47
2022-11-23T18:59:02.828Z,10.90
2022-11-23T19:01:59.762Z,7.50
2022-11-23T19:04:56.722Z,9.30
2022-11-23T19:07:54.624Z,15.68
2022-11-23T19:10:51.656Z,14.18
2022-11-23T19:13:52.512Z,8.80
2022-11-23T19:16:49.402Z,10.15
2022-11-23T19:19:46.440Z,12.13
2022-11-23T19:22:43.469Z,14.30
2022-11-23T19:25:41.358Z,13.95
2022-11-23T19:28:38.740Z,10.27
2022-11-23T19:31:35.825Z,7.68
2022-11-23T19:34:32.916Z,9.10
2022-11-23T19:37:29.947Z,8.73
2022-11-23T19:40:26.948Z,8.93
2022-11-23T19:43:23.892Z,7.95
2022-11-23T19:46:21.298Z,7.85
2022-11-23T19:49:18.582Z,7.65
2022-11-23T19:52:15.521Z,9.95
2022-11-23T19:55:12.392Z,9.43
2022-11-23T19:58:09.271Z,8.85
2022-11-23T20:01:10.775Z,7.78
2022-11-23T20:04:10.257Z,8.30
2022-11-23T20:07:07.455Z,8.25
2022-11-23T20:10:04.928Z,7.97
2022-11-23T20:13:01.856Z,7.78
2022-11-23T20:16:04.063Z,7.28
2022-11-23T20:19:07.285Z,10.20
2022-11-23T20:22:04.234Z,6.43
2022-11-23T20:25:01.114Z,6.15
2022-11-23T20:27:58.053Z,6.75
2022-11-23T20:30:54.981Z,6.13
2022-11-23T20:33:54.004Z,5.93
2022-11-23T20:36:50.956Z,7.20
2022-11-23T20:39:47.797Z,6.88
2022-11-23T20:42:44.659Z,6.63
2022-11-23T20:45:41.539Z,6.93
2022-11-23T20:48:40.484Z,6.82
2022-11-23T20:51:37.345Z,6.57
2022-11-23T20:54:34.449Z,6.63
2022-11-23T20:57:31.452Z,7.30
2022-11-23T21:00:28.278Z,6.50
2022-11-23T21:03:25.260Z,9.02
2022-11-23T21:06:23.223Z,10.20
2022-11-23T21:09:20.159Z,6.47
2022-11-23T21:12:47.599Z,7.07
2022-11-23T21:15:47.295Z,7.65
2022-11-23T21:18:44.214Z,8.63
2022-11-23T21:21:41.298Z,8.80
2022-11-23T21:24:38.734Z,9.23
2022-11-23T21:27:35.594Z,8.63
2022-11-23T21:30:32.531Z,7.05
2022-11-23T21:33:29.983Z,8.25
2022-11-23T21:36:26.819Z,7.97
2022-11-23T21:39:24.209Z,8.80
2022-11-23T21:42:21.220Z,9.68
2022-11-23T21:45:18.196Z,9.85
2022-11-23T21:48:15.041Z,10.43
2022-11-23T21:51:14.994Z,10.70
2022-11-23T21:54:15.478Z,10.57
2022-11-23T22:00:10.080Z,10.05
2022-11-23T22:03:06.911Z,10.48
2022-11-23T22:06:04.777Z,10.65
2022-11-23T22:09:01.810Z,10.52
2022-11-23T22:11:59.015Z,9.45
2022-11-23T22:14:55.865Z,9.93
2022-11-23T22:17:52.730Z,9.77
2022-11-23T22:20:49.553Z,9.73
2022-11-23T22:23:46.740Z,8.80
2022-11-23T22:26:44.989Z,10.60
2022-11-23T22:29:41.835Z,10.30
2022-11-23T22:32:38.699Z,8.25
2022-11-23T22:35:35.516Z,7.82
2022-11-23T22:38:33.391Z,8.05
2022-11-23T22:41:36.226Z,9.95
2022-11-23T22:44:33.333Z,9.80
2022-11-23T22:47:30.366Z,10.25
2022-11-23T22:50:27.198Z,10.13
2022-11-23T22:53:24.964Z,7.60
2022-11-23T22:56:21.960Z,6.30
2022-11-23T22:59:19.092Z,6.63
2022-11-23T23:02:15.943Z,7.72
2022-11-23T23:05:12.869Z,8.68
2022-11-23T23:08:10.400Z,6.40
2022-11-23T23:11:07.718Z,6.65
2022-11-23T23:14:05.626Z,7.40
2022-11-23T23:17:02.477Z,9.27
2022-11-23T23:19:59.298Z,7.10
2022-11-23T23:22:56.216Z,7.82
2022-11-23T23:25:56.530Z,9.27
2022-11-23T23:28:58.951Z,8.55
2022-11-23T23:31:55.892Z,8.50
2022-11-23T23:34:52.844Z,9.43
2022-11-23T23:37:51.770Z,9.18
2022-11-23T23:40:48.605Z,9.10
2022-11-23T23:43:47.943Z,9.57
2022-11-23T23:46:44.904Z,8.35
2022-11-23T23:49:41.775Z,8.43
2022-11-23T23:52:38.703Z,9.23
2022-11-23T23:55:35.566Z,9.23
2022-11-23T23:58:32.616Z,9.50
